createdAt,value
2022-10-29T00:00:35.201Z,9.86
2022-10-29T00:03:32.134Z,9.82
2022-10-29T00:06:28.974Z,9.95
2022-10-29T00:09:25.829Z,9.79
2022-10-29T00:12:22.652Z,9.80
2022-10-29T00:15:19.545Z,9.73
2022-10-29T00:18:16.384Z,9.94
2022-10-29T00:21:19.794Z,9.56
2022-10-29T00:24:17.033Z,9.68
2022-10-29T00:27:13.866Z,9.59
2022-10-29T00:30:12.025Z,9.74
2022-10-29T00:33:08.898Z,9.65
2022-10-29T00:36:12.755Z,9.56
2022-10-29T00:39:15.704Z,9.36
2022-10-29T00:42:15.928Z,9.50
2022-10-29T00:45:21.110Z,9.27
2022-10-29T00:48:18.095Z,9.29
2022-10-29T00:51:16.610Z,9.22
2022-10-29T00:54:16.036Z,9.12
2022-10-29T00:57:38.971Z,9.20
2022-10-29T01:00:35.791Z,9.17
2022-10-29T01:03:32.664Z,9.07
2022-10-29T01:06:30.954Z,9.11
2022-10-29T01:09:27.792Z,9.04
2022-10-29T01:12:59.276Z,9.08
2022-10-29T01:15:56.034Z,8.99
2022-10-29T01:19:09.044Z,9.17
2022-10-29T01:22:43.703Z,9.07
2022-10-29T01:26:19.480Z,8.96
2022-10-29T01:29:36.529Z,8.90
2022-10-29T01:32:40.934Z,8.86
2022-10-29T01:36:33.599Z,8.91
2022-10-29T01:39:40.728Z,8.82
2022-10-29T01:42:49.678Z,8.83
2022-10-29T01:45:56.431Z,8.75
2022-10-29T01:49:02.468Z,8.94
2022-10-29T01:52:02.970Z,9.32
2022-10-29T01:54:59.873Z,8.93
2022-10-29T01:57:57.246Z,8.96
2022-10-29T02:01:35.233Z,9.08
2022-10-29T02:04:54.377Z,8.95
2022-10-29T02:08:03.090Z,8.84
2022-10-29T02:11:30.768Z,8.74
2022-10-29T02:14:38.323Z,8.67
2022-10-29T02:17:35.873Z,8.61
2022-10-29T02:20:32.848Z,8.82
2022-10-29T02:23:29.692Z,8.77
2022-10-29T02:26:26.511Z,8.52
2022-10-29T02:29:23.432Z,8.43
2022-10-29T02:32:20.242Z,8.71
2022-10-29T02:35:17.196Z,8.52
2022-10-29T02:38:14.005Z,8.47
2022-10-29T02:41:10.799Z,8.47
2022-10-29T02:44:07.650Z,8.49
2022-10-29T02:47:04.512Z,8.61
2022-10-29T02:50:01.440Z,8.60
2022-10-29T02:52:58.292Z,8.47
2022-10-29T02:55:55.111Z,8.46
2022-10-29T02:58:52.456Z,8.65
2022-10-29T03:01:49.445Z,8.54
2022-10-29T03:04:46.430Z,8.36
2022-10-29T03:07:43.258Z,8.47
2022-10-29T03:10:40.131Z,8.61
2022-10-29T03:16:34.989Z,8.63
2022-10-29T03:19:31.863Z,8.49
2022-10-29T03:22:28.714Z,8.61
2022-10-29T03:25:25.548Z,8.74
2022-10-29T03:28:24.288Z,8.37
2022-10-29T03:31:21.106Z,8.48
2022-10-29T03:34:18.018Z,8.53
2022-10-29T03:37:14.844Z,8.52
2022-10-29T03:40:11.769Z,8.43
2022-10-29T03:43:08.632Z,8.29
2022-10-29T03:46:06.315Z,8.26
2022-10-29T03:49:03.172Z,8.27
2022-10-29T03:52:00.016Z,8.24
2022-10-29T03:54:56.915Z,8.33
2022-10-29T03:57:54.086Z,8.34
2022-10-29T04:01:03.065Z,8.30
2022-10-29T04:03:59.891Z,8.23
2022-10-29T04:06:56.708Z,8.18
2022-10-29T04:09:53.534Z,8.28
2022-10-29T04:12:50.356Z,8.41
2022-10-29T04:15:47.189Z,8.53
2022-10-29T04:18:46.297Z,8.37
2022-10-29T04:31:33.533Z,8.32
2022-10-29T04:34:30.389Z,8.28
2022-10-29T04:37:29.737Z,8.10
2022-10-29T04:40:26.556Z,8.19
2022-10-29T04:43:23.379Z,8.25
2022-10-29T04:46:20.220Z,8.21
2022-10-29T04:49:17.147Z,8.14
2022-10-29T04:52:14.033Z,8.08
2022-10-29T04:55:10.883Z,8.11
2022-10-29T04:58:15.091Z,8.35
2022-10-29T05:01:12.017Z,8.33
2022-10-29T05:04:09.157Z,8.13
2022-10-29T05:07:05.996Z,8.07
2022-10-29T05:10:02.900Z,8.05
2022-10-29T05:13:09.785Z,8.09
2022-10-29T05:16:07.247Z,8.25
2022-10-29T05:19:05.005Z,8.01
2022-10-29T05:22:01.904Z,8.04
2022-10-29T05:24:58.723Z,8.12
2022-10-29T05:28:07.753Z,8.13
2022-10-29T05:31:04.995Z,8.24
2022-10-29T05:34:01.820Z,8.32
2022-10-29T05:36:58.736Z,8.38
2022-10-29T05:39:55.615Z,8.23
2022-10-29T05:42:52.615Z,8.22
2022-10-29T05:45:49.424Z,8.09
2022-10-29T05:48:46.301Z,8.07
2022-10-29T05:51:43.128Z,8.30
2022-10-29T05:54:39.945Z,8.17
2022-10-29T05:57:36.787Z,8.19
2022-10-29T06:00:37.448Z,8.19
2022-10-29T06:03:34.414Z,8.13
2022-10-29T06:06:31.396Z,8.25
2022-10-29T06:09:28.297Z,8.17
2022-10-29T06:12:25.147Z,8.18
2022-10-29T06:15:23.139Z,8.21
2022-10-29T06:18:19.965Z,8.29
2022-10-29T06:21:16.860Z,8.47
2022-10-29T06:24:13.760Z,8.55
2022-10-29T06:27:11.032Z,8.64
2022-10-29T06:30:08.840Z,8.73
2022-10-29T06:33:06.021Z,8.72
2022-10-29T06:36:03.033Z,8.83
2022-10-29T06:38:59.969Z,8.94
2022-10-29T06:41:56.917Z,9.11
2022-10-29T06:44:53.802Z,9.18
2022-10-29T06:47:50.650Z,9.14
2022-10-29T06:50:47.532Z,9.08
2022-10-29T06:53:44.424Z,9.12
2022-10-29T06:56:41.443Z,9.37
2022-10-29T06:59:38.453Z,9.43
2022-10-29T07:02:35.368Z,9.52
2022-10-29T07:05:33.169Z,9.53
2022-10-29T07:08:30.606Z,9.73
2022-10-29T07:11:27.463Z,9.78
2022-10-29T07:14:24.279Z,10.00
2022-10-29T07:17:21.109Z,10.01
2022-10-29T07:20:17.974Z,10.08
2022-10-29T07:23:14.895Z,10.32
2022-10-29T07:26:11.737Z,10.50
2022-10-29T07:29:08.585Z,10.66
2022-10-29T07:32:05.562Z,10.75
2022-10-29T07:35:02.565Z,10.73
2022-10-29T07:38:09.086Z,10.67
2022-10-29T07:41:07.293Z,10.74
2022-10-29T07:44:04.231Z,10.69
2022-10-29T07:47:03.064Z,10.70
2022-10-29T07:50:00.426Z,10.75
2022-10-29T07:53:00.864Z,10.79
2022-10-29T07:55:58.124Z,10.80
2022-10-29T07:58:54.998Z,10.82
2022-10-29T08:01:52.003Z,11.02
2022-10-29T08:04:49.003Z,11.09
2022-10-29T08:07:45.839Z,11.25
2022-10-29T08:10:42.691Z,11.47
2022-10-29T08:13:39.514Z,11.53
2022-10-29T08:16:36.354Z,11.85
2022-10-29T08:19:33.325Z,12.23
2022-10-29T08:22:31.019Z,12.14
2022-10-29T08:25:28.096Z,12.44
2022-10-29T08:28:25.824Z,12.56
2022-10-29T08:31:22.909Z,12.53
2022-10-29T08:34:19.771Z,12.68
2022-10-29T08:37:16.620Z,12.79
2022-10-29T08:40:34.669Z,12.79
2022-10-29T08:44:16.743Z,12.96
2022-10-29T08:47:23.421Z,13.11
2022-10-29T08:50:41.329Z,13.17
2022-10-29T08:54:10.466Z,13.19
2022-10-29T08:57:15.890Z,13.27
2022-10-29T09:00:26.040Z,13.27
2022-10-29T09:03:24.335Z,13.30
2022-10-29T09:06:53.786Z,13.16
2022-10-29T09:10:01.678Z,13.64
2022-10-29T09:13:49.870Z,13.63
2022-10-29T09:17:01.008Z,14.10
2022-10-29T09:20:29.213Z,14.53
2022-10-29T09:24:05.124Z,15.36
2022-10-29T09:27:29.426Z,15.01
2022-10-29T09:30:31.682Z,14.83
2022-10-29T09:33:29.321Z,14.92
2022-10-29T09:36:26.583Z,14.94
2022-10-29T09:39:40.542Z,14.80
2022-10-29T09:42:42.351Z,14.80
2022-10-29T09:45:52.624Z,14.95
2022-10-29T09:49:36.076Z,14.82
2022-10-29T09:52:36.941Z,15.11
2022-10-29T09:55:43.802Z,15.27
2022-10-29T09:58:45.896Z,15.31
2022-10-29T10:01:42.802Z,15.19
2022-10-29T10:04:46.734Z,15.45
2022-10-29T10:08:07.522Z,15.60
2022-10-29T10:11:07.941Z,15.65
2022-10-29T10:14:20.695Z,15.71
2022-10-29T10:17:17.582Z,15.53
2022-10-29T10:20:37.213Z,15.53
2022-10-29T10:23:41.806Z,15.77
2022-10-29T10:26:43.312Z,15.73
2022-10-29T10:29:40.296Z,15.75
2022-10-29T10:32:37.238Z,15.91
2022-10-29T10:35:36.128Z,16.91
2022-10-29T10:38:44.436Z,19.26
2022-10-29T10:41:43.090Z,18.80
2022-10-29T10:44:52.289Z,19.78
2022-10-29T10:47:57.585Z,20.18
2022-10-29T10:51:25.320Z,19.12
2022-10-29T10:54:39.133Z,18.94
2022-10-29T10:57:50.051Z,20.37
2022-10-29T11:01:16.435Z,19.57
2022-10-29T11:04:30.442Z,19.81
2022-10-29T11:07:33.329Z,17.90
2022-10-29T11:11:00.240Z,17.72
2022-10-29T11:14:05.444Z,17.20
2022-10-29T11:17:07.155Z,17.33
2022-10-29T11:20:16.077Z,17.21
2022-10-29T11:23:34.188Z,17.23
2022-10-29T11:26:53.430Z,17.31
2022-10-29T11:30:09.591Z,17.21
2022-10-29T11:33:40.733Z,17.31
2022-10-29T11:36:50.760Z,17.70
2022-10-29T11:40:23.542Z,17.64
2022-10-29T11:43:21.439Z,18.03
2022-10-29T11:46:30.918Z,17.54
2022-10-29T11:50:14.955Z,17.56
2022-10-29T11:53:32.591Z,17.89
2022-10-29T11:56:58.960Z,17.90
2022-10-29T12:00:16.716Z,17.40
2022-10-29T12:04:12.601Z,17.18
2022-10-29T12:07:53.350Z,17.65
2022-10-29T12:10:59.848Z,17.47
2022-10-29T12:14:29.969Z,17.32
2022-10-29T12:17:43.946Z,17.71
2022-10-29T12:21:07.319Z,17.84
2022-10-29T12:25:02.090Z,17.72
2022-10-29T12:28:19.152Z,17.78
2022-10-29T12:31:45.157Z,17.72
2022-10-29T12:34:50.287Z,17.52
2022-10-29T12:38:05.872Z,17.94
2022-10-29T12:41:20.938Z,17.97
2022-10-29T12:45:23.851Z,17.98
2022-10-29T12:48:49.345Z,17.94
2022-10-29T12:52:04.558Z,17.66
2022-10-29T12:55:04.567Z,17.76
2022-10-29T12:58:50.656Z,17.38
2022-10-29T13:05:10.080Z,17.33
2022-10-29T13:08:06.815Z,17.09
2022-10-29T13:11:23.449Z,17.26
2022-10-29T13:14:38.372Z,17.19
2022-10-29T13:17:39.738Z,17.31
2022-10-29T13:20:46.284Z,17.51
2022-10-29T13:24:03.626Z,17.73
2022-10-29T13:27:33.375Z,17.60
2022-10-29T13:30:30.308Z,17.98
2022-10-29T13:33:27.071Z,17.70
2022-10-29T13:36:23.779Z,17.88
2022-10-29T13:39:20.886Z,17.86
2022-10-29T13:42:18.196Z,17.77
2022-10-29T13:45:15.295Z,17.62
2022-10-29T13:48:24.852Z,17.61
2022-10-29T13:51:34.369Z,17.49
2022-10-29T13:54:52.931Z,17.45
2022-10-29T13:58:33.817Z,16.85
2022-10-29T14:01:33.685Z,16.78
2022-10-29T14:04:37.587Z,16.65
2022-10-29T14:07:56.138Z,16.72
2022-10-29T14:11:02.476Z,16.69
2022-10-29T14:14:02.819Z,16.90
2022-10-29T14:17:18.253Z,16.86
2022-10-29T14:20:28.845Z,16.51
2022-10-29T14:23:26.866Z,16.36
2022-10-29T14:26:24.965Z,16.27
2022-10-29T14:29:24.539Z,16.27
2022-10-29T14:32:22.645Z,16.26
2022-10-29T14:35:21.496Z,15.96
2022-10-29T14:38:20.962Z,16.30
2022-10-29T14:41:19.322Z,15.82
2022-10-29T14:44:30.055Z,15.88
2022-10-29T14:47:50.255Z,15.79
2022-10-29T14:50:50.806Z,15.67
2022-10-29T14:53:56.365Z,15.45
2022-10-29T14:56:59.487Z,15.18
2022-10-29T15:00:04.021Z,15.23
2022-10-29T15:03:01.768Z,15.15
2022-10-29T15:06:24.801Z,15.05
2022-10-29T15:09:28.053Z,14.97
2022-10-29T15:12:34.926Z,14.82
2022-10-29T15:15:32.179Z,14.81
2022-10-29T15:18:30.641Z,14.80
2022-10-29T15:21:33.070Z,14.68
2022-10-29T15:24:30.072Z,14.64
2022-10-29T15:27:27.157Z,14.63
2022-10-29T15:30:35.261Z,14.53
2022-10-29T15:33:32.479Z,14.56
2022-10-29T15:36:50.038Z,14.30
2022-10-29T15:40:04.776Z,14.16
2022-10-29T15:43:30.607Z,14.10
2022-10-29T15:46:35.090Z,13.90
2022-10-29T15:49:32.793Z,13.77
2022-10-29T15:52:39.150Z,13.61
2022-10-29T15:55:38.529Z,13.55
2022-10-29T15:58:35.409Z,13.41
2022-10-29T16:01:32.359Z,13.49
2022-10-29T16:04:29.285Z,13.27
2022-10-29T16:07:26.151Z,13.19
2022-10-29T16:10:23.203Z,13.01
2022-10-29T16:13:20.681Z,12.97
2022-10-29T16:16:20.933Z,12.79
2022-10-29T16:19:17.776Z,12.71
2022-10-29T16:22:34.991Z,12.67
2022-10-29T16:25:32.103Z,12.55
2022-10-29T16:28:28.977Z,12.49
2022-10-29T16:31:28.508Z,12.44
2022-10-29T16:34:25.352Z,12.42
2022-10-29T16:37:22.220Z,12.53
2022-10-29T16:40:22.778Z,12.46
2022-10-29T16:43:19.960Z,12.29
2022-10-29T16:46:16.855Z,12.27
2022-10-29T16:49:13.689Z,12.28
2022-10-29T16:52:10.610Z,12.29
2022-10-29T16:55:07.661Z,12.17
2022-10-29T16:58:08.868Z,12.19
2022-10-29T17:01:08.544Z,12.34
2022-10-29T17:04:05.751Z,12.23
2022-10-29T17:07:02.790Z,12.16
2022-10-29T17:09:59.761Z,12.24
2022-10-29T17:12:57.296Z,12.15
2022-10-29T17:15:54.476Z,12.13
2022-10-29T17:18:51.991Z,12.09
2022-10-29T17:21:48.889Z,12.22
2022-10-29T17:24:46.044Z,12.19
2022-10-29T17:27:42.955Z,12.08
2022-10-29T17:30:40.285Z,11.92
2022-10-29T17:33:37.727Z,11.89
2022-10-29T17:36:36.910Z,12.00
2022-10-29T17:39:33.861Z,11.99
2022-10-29T17:42:31.217Z,12.08
2022-10-29T17:45:28.204Z,12.12
2022-10-29T17:48:25.379Z,11.83
2022-10-29T17:51:22.915Z,11.92
2022-10-29T17:54:21.369Z,11.91
2022-10-29T17:57:18.222Z,11.89
2022-10-29T18:00:16.224Z,11.94
2022-10-29T18:03:13.141Z,11.89
2022-10-29T18:06:13.482Z,11.85
2022-10-29T18:09:10.413Z,11.80
2022-10-29T18:12:07.594Z,11.83
2022-10-29T18:15:05.395Z,11.77
2022-10-29T18:18:02.357Z,11.55
2022-10-29T18:20:59.189Z,11.57
2022-10-29T18:23:56.099Z,11.44
2022-10-29T18:26:52.944Z,11.45
2022-10-29T18:29:50.302Z,11.52
2022-10-29T18:32:47.134Z,11.62
2022-10-29T18:35:43.961Z,11.57
2022-10-29T18:38:41.058Z,11.64
2022-10-29T18:41:37.901Z,11.54
2022-10-29T18:44:34.822Z,11.46
2022-10-29T18:47:31.655Z,11.47
2022-10-29T18:50:28.511Z,11.47
2022-10-29T18:53:25.347Z,11.37
2022-10-29T18:56:23.556Z,11.49
2022-10-29T18:59:21.484Z,11.44
2022-10-29T19:02:18.501Z,11.41
2022-10-29T19:05:15.516Z,11.41
2022-10-29T19:08:13.196Z,11.42
2022-10-29T19:11:16.643Z,11.39
2022-10-29T19:14:14.420Z,11.45
2022-10-29T19:17:11.336Z,11.39
2022-10-29T19:20:08.726Z,11.39
2022-10-29T19:23:05.641Z,11.34
2022-10-29T19:26:19.229Z,11.14
2022-10-29T19:29:16.359Z,11.13
2022-10-29T19:32:13.271Z,11.14
2022-10-29T19:35:11.151Z,10.91
2022-10-29T19:38:07.998Z,11.08
2022-10-29T19:41:04.957Z,11.18
2022-10-29T19:44:03.015Z,11.08
2022-10-29T19:47:00.097Z,11.07
2022-10-29T19:49:57.006Z,11.03
2022-10-29T19:52:53.887Z,11.09
2022-10-29T19:55:52.257Z,11.06
2022-10-29T19:58:49.768Z,10.88
2022-10-29T20:01:48.534Z,10.87
2022-10-29T20:04:45.633Z,10.91
2022-10-29T20:07:42.528Z,10.89
2022-10-29T20:10:39.786Z,11.07
2022-10-29T20:13:37.833Z,11.16
2022-10-29T20:16:34.747Z,11.05
2022-10-29T20:19:31.613Z,11.05
2022-10-29T20:22:28.529Z,11.19
2022-10-29T20:25:26.044Z,11.11
2022-10-29T20:28:23.174Z,11.01
2022-10-29T20:31:21.547Z,11.01
2022-10-29T20:34:18.498Z,10.86
2022-10-29T20:37:15.593Z,10.88
2022-10-29T20:40:13.204Z,10.92
2022-10-29T20:43:10.081Z,10.73
2022-10-29T20:46:07.202Z,10.72
2022-10-29T20:49:04.046Z,10.71
2022-10-29T20:52:00.882Z,10.69
2022-10-29T20:54:57.695Z,10.56
2022-10-29T20:57:54.795Z,10.42
2022-10-29T21:00:51.903Z,10.36
2022-10-29T21:03:50.503Z,10.39
2022-10-29T21:06:47.364Z,10.46
2022-10-29T21:09:44.708Z,10.38
2022-10-29T21:12:41.636Z,10.33
2022-10-29T21:15:38.460Z,10.25
2022-10-29T21:18:40.003Z,10.26
2022-10-29T21:21:36.927Z,10.31
2022-10-29T21:24:33.813Z,10.35
2022-10-29T21:27:30.665Z,10.13
2022-10-29T21:30:27.520Z,10.17
2022-10-29T21:33:24.404Z,10.08
2022-10-29T21:36:22.005Z,10.19
2022-10-29T21:39:18.863Z,10.00
2022-10-29T21:42:15.706Z,9.82
2022-10-29T21:45:12.641Z,9.94
2022-10-29T21:48:10.896Z,9.91
2022-10-29T21:51:13.169Z,9.93
2022-10-29T21:54:09.998Z,9.79
2022-10-29T21:57:06.881Z,9.73
2022-10-29T22:00:09.752Z,9.60
2022-10-29T22:03:06.606Z,9.77
2022-10-29T22:06:12.543Z,9.78
2022-10-29T22:09:11.800Z,9.87
2022-10-29T22:12:08.673Z,9.64
2022-10-29T22:15:06.781Z,9.66
2022-10-29T22:18:03.690Z,9.69
2022-10-29T22:21:07.455Z,9.56
2022-10-29T22:24:04.819Z,9.62
2022-10-29T22:27:01.782Z,9.65
2022-10-29T22:29:58.642Z,9.68
2022-10-29T22:32:55.476Z,9.57
2022-10-29T22:35:52.340Z,9.44
2022-10-29T22:38:59.911Z,9.70
2022-10-29T22:41:56.733Z,9.56
2022-10-29T22:44:53.578Z,9.70
2022-10-29T22:47:50.389Z,9.51
2022-10-29T22:50:47.207Z,9.46
2022-10-29T22:53:45.656Z,9.37
2022-10-29T22:56:42.495Z,9.44
2022-10-29T22:59:39.386Z,9.58
2022-10-29T23:02:36.355Z,9.55
2022-10-29T23:05:33.248Z,9.37
2022-10-29T23:08:30.218Z,9.34
2022-10-29T23:11:30.699Z,9.23
2022-10-29T23:14:27.742Z,9.26
2022-10-29T23:17:24.566Z,9.29
2022-10-29T23:20:21.450Z,9.28
2022-10-29T23:23:18.276Z,9.15
2022-10-29T23:26:15.404Z,9.22
2022-10-29T23:29:12.241Z,9.27
2022-10-29T23:32:09.092Z,9.27
2022-10-29T23:35:06.305Z,9.27
2022-10-29T23:38:03.144Z,9.13
2022-10-29T23:41:00.760Z,9.08
2022-10-29T23:43:58.444Z,9.17
2022-10-29T23:46:55.266Z,9.20
2022-10-29T23:49:52.097Z,9.05
2022-10-29T23:52:48.928Z,9.05
2022-10-29T23:55:46.517Z,8.98
2022-10-29T23:58:43.359Z,8.93
